Time;durP1;ratioP1;P1;durP2;ratioP2;P2;SDS_P1;SDS_P2;PMS_P1;PMS_P2;Temp;Humidity;BMP_temperature;BMP_pressure;BME280_temperature;BME280_humidity;BME280_pressure;Samples;Min_cycle;Max_cycle;Signal;HPM_P1;HPM_P2
2022/09/10 00:01:58;;;;;;;12.20;9.52;;;;;;;20.44;70.50;94833.03;5056523;28;20198;-69
2022/09/10 00:04:24;;;;;;;9.88;8.88;;;;;;;20.45;70.77;94836.63;5056563;28;20200;-70
2022/09/10 00:06:51;;;;;;;10.95;9.07;;;;;;;20.45;70.16;94839.44;5056699;28;20190;-70
2022/09/10 00:09:18;;;;;;;9.70;8.85;;;;;;;20.47;70.08;94839.00;5056374;28;20213;-70
2022/09/10 00:11:46;;;;;;;10.98;9.30;;;;;;;20.46;70.14;94838.19;5056453;28;20213;-69
2022/09/10 00:14:16;;;;;;;9.95;8.90;;;;;;;20.48;70.08;94844.19;5056048;28;20202;-69
2022/09/10 00:16:44;;;;;;;10.88;9.85;;;;;;;20.48;70.22;94841.38;5056782;28;20198;-69
2022/09/10 00:19:11;;;;;;;9.88;8.98;;;;;;;20.50;70.26;94838.97;5055677;28;20197;-69
2022/09/10 00:21:38;;;;;;;10.23;9.20;;;;;;;20.52;69.75;94838.56;5056388;28;20186;-69
2022/09/10 00:24:05;;;;;;;10.20;9.20;;;;;;;20.54;69.91;94841.72;5055953;28;20205;-69
2022/09/10 00:26:37;;;;;;;10.38;9.45;;;;;;;20.53;70.22;94840.94;5055829;28;20198;-69
2022/09/10 00:29:05;;;;;;;10.40;9.40;;;;;;;20.53;70.78;94837.34;5089553;28;20708;-70
2022/09/10 00:31:32;;;;;;;11.18;9.48;;;;;;;20.52;71.04;94833.75;5056129;28;20220;-70
2022/09/10 00:34:02;;;;;;;10.50;9.45;;;;;;;20.51;71.09;94837.75;5055821;28;20197;-70
2022/09/10 00:36:31;;;;;;;11.15;9.95;;;;;;;20.50;70.83;94840.97;5056453;28;20202;-70
2022/09/10 00:39:01;;;;;;;10.93;9.82;;;;;;;20.50;70.83;94836.16;5056008;28;20205;-70
2022/09/10 00:41:28;;;;;;;10.15;9.23;;;;;;;20.50;71.18;94850.19;5055545;28;20263;-70
2022/09/10 00:43:57;;;;;;;10.32;9.32;;;;;;;20.48;70.69;94838.59;5055857;28;20204;-70
2022/09/10 00:46:34;;;;;;;9.90;9.00;;;;;;;20.48;70.39;94841.38;5055779;28;20205;-70
2022/09/10 00:49:06;;;;;;;9.57;8.70;;;;;;;20.48;70.57;94841.38;5089586;28;20211;-70
2022/09/10 00:51:35;;;;;;;9.65;8.77;;;;;;;20.48;70.23;94840.56;5055296;28;20567;-70
2022/09/10 00:54:02;;;;;;;9.75;8.85;;;;;;;20.48;70.34;94838.59;5055539;28;20532;-70
2022/09/10 00:56:29;;;;;;;9.90;9.00;;;;;;;20.50;69.94;94841.78;5055915;28;20202;-70
2022/09/10 00:58:57;;;;;;;9.95;8.90;;;;;;;20.51;70.65;94834.94;5055221;28;20562;-70
2022/09/10 01:01:23;;;;;;;10.30;9.30;;;;;;;20.50;70.69;94838.97;5055910;28;20197;-69
2022/09/10 01:03:50;;;;;;;9.35;8.43;;;;;;;20.49;71.00;94834.56;5055232;28;20604;-69
2022/09/10 01:06:19;;;;;;;9.38;8.48;;;;;;;20.47;70.71;94833.38;5055090;28;20555;-69
2022/09/10 01:08:46;;;;;;;9.88;8.90;;;;;;;20.44;70.51;94832.22;5055309;28;20233;-69
2022/09/10 01:11:30;;;;;;;10.27;9.25;;;;;;;20.43;70.54;94825.03;5055812;28;20332;-69
2022/09/10 01:14:13;;;;;;;9.35;8.55;;;;;;;20.42;70.21;94829.06;5055173;28;20251;-69
2022/09/10 01:16:44;;;;;;;9.85;8.65;;;;;;;20.43;70.12;94813.84;5055568;28;20202;-69
2022/09/10 01:19:26;;;;;;;9.50;8.70;;;;;;;20.44;70.45;94821.00;5055216;28;20190;-69
2022/09/10 01:22:04;;;;;;;12.73;8.73;;;;;;;20.45;70.75;94811.41;5054892;28;20206;-70
2022/09/10 01:24:49;;;;;;;10.57;9.52;;;;;;;20.43;70.23;94811.81;5055215;28;20200;-70
2022/09/10 01:27:33;;;;;;;9.73;8.82;;;;;;;20.43;70.60;94814.63;5055473;28;20189;-68
2022/09/10 01:30:06;;;;;;;9.65;8.80;;;;;;;20.42;70.56;94799.03;5055033;28;20197;-68
2022/09/10 01:32:39;;;;;;;9.88;8.95;;;;;;;20.42;71.13;94807.44;5054477;28;20221;-69
2022/09/10 01:35:14;;;;;;;9.50;8.60;;;;;;;20.41;71.31;94796.66;5054708;28;20259;-69
2022/09/10 01:37:43;;;;;;;10.05;9.10;;;;;;;20.39;71.24;94807.50;5055979;28;20190;-69
2022/09/10 01:40:11;;;;;;;9.70;8.80;;;;;;;20.38;70.91;94808.72;5054986;28;20205;-69
2022/09/10 01:42:40;;;;;;;9.90;8.90;;;;;;;20.39;70.90;94799.09;5055241;28;20198;-69
2022/09/10 01:45:09;;;;;;;10.23;9.20;;;;;;;20.38;70.97;94795.50;5054769;28;20194;-69
2022/09/10 01:47:51;;;;;;;10.15;9.13;;;;;;;20.37;70.84;94804.31;5088437;28;20197;-69
2022/09/10 01:50:23;;;;;;;9.75;8.85;;;;;;;20.36;71.18;94806.31;5054718;28;20193;-68
2022/09/10 01:53:03;;;;;;;10.25;9.13;;;;;;;20.35;71.06;94815.94;5054360;28;20616;-69
2022/09/10 01:55:35;;;;;;;11.55;9.15;;;;;;;20.36;71.27;94822.34;5054709;28;20201;-69
2022/09/10 01:58:08;;;;;;;10.68;9.60;;;;;;;20.35;71.20;94818.75;5054665;28;20201;-69
2022/09/10 02:00:37;;;;;;;10.50;8.60;;;;;;;20.36;71.06;94825.13;5054960;28;20525;-69
2022/09/10 02:03:06;;;;;;;10.18;9.27;;;;;;;20.36;71.13;94828.72;5054415;28;20201;-69
2022/09/10 02:05:35;;;;;;;11.15;9.15;;;;;;;20.37;70.97;94830.34;5054405;28;20205;-69
2022/09/10 02:08:05;;;;;;;11.43;9.02;;;;;;;20.37;71.58;94824.72;5053946;28;20229;-70
2022/09/10 02:10:32;;;;;;;10.43;8.80;;;;;;;20.36;71.50;94825.13;5055312;28;20197;-70
2022/09/10 02:12:59;;;;;;;10.05;9.05;;;;;;;20.36;71.03;94827.94;5053916;28;20671;-70
2022/09/10 02:15:28;;;;;;;10.45;9.45;;;;;;;20.37;71.69;94821.13;5054050;28;20206;-70
2022/09/10 02:17:55;;;;;;;9.88;8.93;;;;;;;20.36;71.26;94825.13;5054798;28;20198;-70
2022/09/10 02:20:23;;;;;;;10.70;9.10;;;;;;;20.35;70.97;94821.56;5053915;28;20558;-70
2022/09/10 02:22:52;;;;;;;9.95;8.98;;;;;;;20.34;71.28;94819.19;5054621;28;20201;-68
2022/09/10 02:25:19;;;;;;;9.70;8.82;;;;;;;20.34;70.98;94817.16;5055062;28;20193;-70
2022/09/10 02:27:46;;;;;;;9.63;8.77;;;;;;;20.34;70.97;94816.38;5054854;28;20208;-68
2022/09/10 02:30:13;;;;;;;10.45;9.45;;;;;;;20.33;71.38;94820.38;5054232;28;20210;-68
2022/09/10 02:32:41;;;;;;;9.75;8.90;;;;;;;20.32;71.50;94825.19;5054066;28;20226;-68
2022/09/10 02:35:09;;;;;;;10.20;9.10;;;;;;;20.31;71.44;94820.03;5054733;28;20648;-68
2022/09/10 02:37:36;;;;;;;10.07;9.15;;;;;;;20.32;71.52;94828.00;5054544;28;20201;-68
2022/09/10 02:40:04;;;;;;;10.00;9.10;;;;;;;20.34;71.18;94831.19;5054072;28;20633;-68
2022/09/10 02:42:32;;;;;;;12.13;8.98;;;;;;;20.32;70.94;94830.78;5055373;28;20196;-68
2022/09/10 02:45:00;;;;;;;11.48;8.45;;;;;;;20.29;71.10;94825.25;5058453;28;20327;-68
2022/09/10 02:47:27;;;;;;;9.77;8.88;;;;;;;20.30;70.89;94826.81;5058399;28;20201;-68
2022/09/10 02:50:00;;;;;;;10.32;9.07;;;;;;;20.31;70.87;94828.41;5057878;28;20225;-68
2022/09/10 02:52:28;;;;;;;10.10;8.80;;;;;;;20.30;70.91;94826.81;5057687;28;20256;-68
2022/09/10 02:54:54;;;;;;;9.55;8.70;;;;;;;20.29;70.72;94822.44;5058250;28;20232;-68
2022/09/10 02:57:21;;;;;;;11.00;8.75;;;;;;;20.29;70.77;94831.63;5058137;28;20219;-68
2022/09/10 02:59:48;;;;;;;10.13;9.00;;;;;;;20.28;71.01;94834.88;5058955;28;20182;-68
2022/09/10 03:02:15;;;;;;;14.40;8.93;;;;;;;20.27;71.20;94825.66;5057630;28;20205;-68
2022/09/10 03:04:41;;;;;;;9.75;8.38;;;;;;;20.28;70.70;94827.25;5057735;28;20208;-69
2022/09/10 03:07:10;;;;;;;9.55;8.48;;;;;;;20.26;70.78;94838.09;5057284;28;20233;-69
2022/09/10 03:09:39;;;;;;;14.40;9.20;;;;;;;20.25;71.10;94830.09;5058288;28;20190;-69
2022/09/10 03:12:07;;;;;;;10.30;9.20;;;;;;;20.25;70.90;94835.69;5057424;28;20260;-69
2022/09/10 03:14:33;;;;;;;9.48;8.48;;;;;;;20.24;70.82;94832.13;5057416;28;20205;-69
2022/09/10 03:17:02;;;;;;;10.02;9.05;;;;;;;20.24;71.22;94826.50;5057632;28;20236;-69
2022/09/10 03:19:30;;;;;;;11.00;8.55;;;;;;;20.26;71.20;94831.69;5057729;28;20194;-69
2022/09/10 03:21:57;;;;;;;9.85;8.75;;;;;;;20.23;70.95;94822.13;5056985;28;20308;-69
2022/09/10 03:24:25;;;;;;;9.10;8.27;;;;;;;20.25;70.94;94827.31;5057320;28;20189;-69
2022/09/10 03:26:52;;;;;;;9.82;9.00;;;;;;;20.24;70.94;94820.13;5057523;28;20197;-69
2022/09/10 03:29:19;;;;;;;9.45;8.35;;;;;;;20.25;70.69;94819.69;5057481;28;20190;-69
2022/09/10 03:31:45;;;;;;;9.35;8.45;;;;;;;20.25;70.76;94813.31;5057013;28;20225;-69
2022/09/10 03:34:13;;;;;;;9.48;8.57;;;;;;;20.25;70.29;94813.31;5057309;28;20202;-69
2022/09/10 03:36:40;;;;;;;11.35;8.43;;;;;;;20.24;70.68;94812.50;5056939;28;20280;-69
2022/09/10 03:39:06;;;;;;;9.20;8.30;;;;;;;20.25;70.40;94810.50;5091431;28;20197;-69
2022/09/10 03:41:35;;;;;;;9.52;8.52;;;;;;;20.23;70.67;94816.53;5057255;28;20198;-69
2022/09/10 03:44:02;;;;;;;9.68;8.73;;;;;;;20.23;70.55;94804.53;5057484;28;20630;-69
2022/09/10 03:46:30;;;;;;;9.15;8.25;;;;;;;20.21;70.67;94804.94;5057583;28;20201;-69
2022/09/10 03:48:57;;;;;;;10.05;9.05;;;;;;;20.20;70.60;94811.78;5057017;28;20214;-69
2022/09/10 03:51:24;;;;;;;9.80;9.00;;;;;;;20.20;70.92;94815.34;5056792;28;20233;-69
2022/09/10 03:53:51;;;;;;;9.40;8.43;;;;;;;20.16;71.08;94803.41;5055788;28;20220;-69
2022/09/10 03:56:19;;;;;;;9.65;8.65;;;;;;;20.16;71.07;94800.63;5056234;28;20193;-70
2022/09/10 03:58:48;;;;;;;9.32;8.43;;;;;;;20.14;71.43;94807.84;5056593;28;20266;-69
2022/09/10 04:01:14;;;;;;;9.20;8.30;;;;;;;20.13;71.64;94806.28;5056654;28;20210;-70
2022/09/10 04:03:42;;;;;;;9.57;8.77;;;;;;;20.12;71.33;94801.91;5056805;28;20205;-70
2022/09/10 04:06:09;;;;;;;9.93;8.98;;;;;;;20.10;71.69;94799.50;5056286;28;20256;-70
2022/09/10 04:08:36;;;;;;;9.15;8.25;;;;;;;20.10;71.53;94807.09;5056344;28;20232;-68
2022/09/10 04:11:04;;;;;;;11.02;9.68;;;;;;;20.10;71.70;94812.72;5056351;28;20193;-68
2022/09/10 04:13:31;;;;;;;10.75;9.15;;;;;;;20.10;71.24;94812.72;5056222;28;20217;-69
2022/09/10 04:16:00;;;;;;;9.57;8.73;;;;;;;20.09;71.34;94814.72;5056720;28;20618;-69
2022/09/10 04:18:27;;;;;;;9.65;8.85;;;;;;;20.07;71.51;94821.94;5056116;28;20186;-69
2022/09/10 04:20:54;;;;;;;10.82;9.68;;;;;;;20.07;71.47;94822.72;5056871;28;20202;-69
2022/09/10 04:23:20;;;;;;;10.32;8.88;;;;;;;20.10;71.68;94829.50;5056755;28;20198;-70
2022/09/10 04:25:48;;;;;;;9.82;8.90;;;;;;;20.10;71.38;94844.28;5056264;28;20511;-69
2022/09/10 04:28:15;;;;;;;10.68;8.65;;;;;;;20.14;70.93;94839.44;5056086;28;20194;-69
2022/09/10 04:30:42;;;;;;;10.73;9.55;;;;;;;20.16;70.90;94836.22;5056170;28;20609;-69
2022/09/10 04:33:11;;;;;;;9.85;8.85;;;;;;;20.17;71.21;94847.00;5056606;28;20606;-69
2022/09/10 04:35:38;;;;;;;14.65;9.73;;;;;;;20.16;71.09;94837.03;5089298;28;20186;-68
2022/09/10 04:38:05;;;;;;;10.13;9.23;;;;;;;20.16;71.06;94831.41;5055603;28;20201;-68
2022/09/10 04:40:32;;;;;;;9.95;8.77;;;;;;;20.17;70.82;94835.00;5056434;28;20216;-68
2022/09/10 04:42:59;;;;;;;10.43;9.32;;;;;;;20.16;70.84;94820.22;5055803;28;20695;-68
2022/09/10 04:45:26;;;;;;;9.60;8.65;;;;;;;20.17;71.02;94819.00;5055825;28;20197;-68
2022/09/10 04:47:54;;;;;;;9.38;8.50;;;;;;;20.18;70.43;94803.78;5055484;28;20190;-68
2022/09/10 04:50:22;;;;;;;9.82;8.93;;;;;;;20.18;71.05;94800.19;5055362;28;20198;-68
2022/09/10 04:52:49;;;;;;;9.68;8.68;;;;;;;20.17;71.39;94802.19;5056135;28;20209;-68
2022/09/10 04:55:16;;;;;;;12.88;9.73;;;;;;;20.18;71.85;94803.78;5055776;28;20259;-68
2022/09/10 04:57:43;;;;;;;10.90;9.90;;;;;;;20.18;71.85;94805.78;5055719;28;20192;-68
2022/09/10 05:00:12;;;;;;;12.40;10.27;;;;;;;20.17;72.08;94807.81;5089092;28;20240;-69
2022/09/10 05:02:39;;;;;;;11.38;9.73;;;;;;;20.17;71.75;94804.22;5055664;28;20221;-69
2022/09/10 05:05:07;;;;;;;10.40;9.50;;;;;;;20.17;71.66;94807.81;5055118;28;20194;-68
2022/09/10 05:07:35;;;;;;;11.75;10.45;;;;;;;20.17;71.57;94815.41;5055218;28;20234;-68
2022/09/10 05:10:01;;;;;;;11.90;10.02;;;;;;;20.15;71.50;94809.44;5055363;28;20210;-68
2022/09/10 05:12:28;;;;;;;11.90;10.07;;;;;;;20.15;71.57;94817.81;5054905;28;20224;-68
2022/09/10 05:14:55;;;;;;;10.93;9.93;;;;;;;20.14;71.64;94828.22;5055248;28;20201;-68
2022/09/10 05:17:22;;;;;;;12.30;11.13;;;;;;;20.14;72.26;94836.63;5055074;28;20209;-68
2022/09/10 05:19:48;;;;;;;11.00;9.82;;;;;;;20.16;72.24;94833.44;5055135;28;20205;-68
2022/09/10 05:22:15;;;;;;;10.63;9.65;;;;;;;20.16;72.09;94836.22;5054962;28;20205;-68
2022/09/10 05:24:43;;;;;;;10.45;9.55;;;;;;;20.17;72.08;94843.41;5055189;28;20194;-68
2022/09/10 05:27:10;;;;;;;10.25;9.23;;;;;;;20.19;72.13;94841.78;5054811;28;20197;-68
2022/09/10 05:29:37;;;;;;;11.18;10.13;;;;;;;20.20;71.91;94837.75;5054996;28;20198;-68
2022/09/10 05:32:04;;;;;;;10.60;9.57;;;;;;;20.19;71.88;94833.38;5054487;28;20201;-68
2022/09/10 05:34:30;;;;;;;9.95;8.95;;;;;;;20.20;71.91;94837.75;5054931;28;20202;-68
2022/09/10 05:36:57;;;;;;;9.63;8.65;;;;;;;20.19;71.90;94833.38;5054648;28;20197;-68
2022/09/10 05:39:24;;;;;;;9.75;8.82;;;;;;;20.21;71.67;94830.16;5054570;28;20209;-68
2022/09/10 05:41:54;;;;;;;10.30;9.38;;;;;;;20.23;71.58;94832.53;5054412;28;20543;-68
2022/09/10 05:44:21;;;;;;;10.90;9.80;;;;;;;20.24;71.51;94829.31;5054401;28;20204;-68
2022/09/10 05:46:48;;;;;;;10.32;9.32;;;;;;;20.24;71.64;94823.72;5054890;28;20613;-68
2022/09/10 05:49:15;;;;;;;12.02;10.82;;;;;;;20.24;71.74;94820.13;5054429;28;20255;-68
2022/09/10 05:51:42;;;;;;;10.90;9.98;;;;;;;20.26;71.93;94826.91;5054362;28;20281;-68
2022/09/10 05:54:10;;;;;;;11.00;9.98;;;;;;;20.28;72.05;94832.06;5054220;28;20244;-68
2022/09/10 05:56:36;;;;;;;11.65;10.13;;;;;;;20.31;71.40;94837.63;5054563;28;20293;-68
2022/09/10 05:59:05;;;;;;;11.73;10.43;;;;;;;20.33;71.91;94828.78;5054490;28;20205;-68
2022/09/10 06:01:31;;;;;;;11.50;10.38;;;;;;;20.37;71.67;94823.91;5055402;28;20205;-68
2022/09/10 06:03:58;;;;;;;11.68;10.57;;;;;;;20.43;71.65;94827.84;5054199;28;20255;-69
2022/09/10 06:06:27;;;;;;;12.02;10.82;;;;;;;20.48;71.49;94826.56;5054028;28;20209;-68
2022/09/10 06:08:53;;;;;;;12.45;11.15;;;;;;;20.50;71.38;94821.38;5053899;28;20641;-68
2022/09/10 06:11:20;;;;;;;13.30;12.02;;;;;;;20.52;71.44;94830.16;5054166;28;20198;-68
2022/09/10 06:13:47;;;;;;;13.70;12.48;;;;;;;20.53;70.74;94828.94;5053895;28;20217;-68
2022/09/10 06:16:16;;;;;;;11.98;10.82;;;;;;;20.55;70.75;94832.91;5054161;28;20190;-68
2022/09/10 06:18:44;;;;;;;12.77;11.57;;;;;;;20.58;70.36;94837.63;5053732;28;20201;-68
2022/09/10 06:21:15;;;;;;;11.25;10.15;;;;;;;20.58;70.72;94828.44;5054055;28;20198;-68
2022/09/10 06:23:43;;;;;;;10.88;9.88;;;;;;;20.59;70.75;94830.84;5054161;28;20212;-68
2022/09/10 06:26:12;;;;;;;11.38;10.25;;;;;;;20.58;70.50;94831.25;5053714;28;20194;-68
2022/09/10 06:28:39;;;;;;;12.02;10.82;;;;;;;20.60;70.34;94832.41;5054030;28;20300;-68
2022/09/10 06:31:06;;;;;;;13.10;11.13;;;;;;;20.60;70.45;94826.81;5054129;28;20208;-70
2022/09/10 06:36:19;;;;;;;16.90;11.80;;;;;;;20.59;70.16;94842.03;5053997;28;20189;-68
2022/09/10 06:38:46;;;;;;;13.52;12.13;;;;;;;20.60;70.04;94831.63;5054494;28;20194;-68
2022/09/10 06:41:14;;;;;;;15.57;14.02;;;;;;;20.62;70.66;94835.56;5054016;28;20221;-68
2022/09/10 06:43:42;;;;;;;17.50;15.65;;;;;;;20.62;70.34;94827.16;5053754;28;20206;-68
2022/09/10 06:46:12;;;;;;;17.25;15.68;;;;;;;20.61;70.42;94822.00;5053913;28;20193;-68
2022/09/10 06:48:41;;;;;;;18.70;16.75;;;;;;;20.60;70.30;94826.81;5054104;28;20259;-68
2022/09/10 06:51:09;;;;;;;17.42;15.93;;;;;;;20.58;70.14;94818.03;5054257;28;20205;-68
2022/09/10 06:53:36;;;;;;;15.20;13.85;;;;;;;20.58;70.13;94823.63;5053775;28;20221;-68
2022/09/10 06:56:04;;;;;;;14.95;13.32;;;;;;;20.60;70.21;94821.22;5053717;28;20198;-68
2022/09/10 06:58:33;;;;;;;14.45;12.88;;;;;;;20.63;69.96;94819.56;5054090;28;20194;-68
2022/09/10 07:01:06;;;;;;;13.98;12.43;;;;;;;20.69;70.48;94820.66;5053984;28;20288;-68
2022/09/10 07:03:33;;;;;;;13.73;12.48;;;;;;;20.71;70.10;94812.63;5053889;28;20225;-68
2022/09/10 07:06:04;;;;;;;17.08;13.82;;;;;;;20.75;69.88;94818.19;5053443;28;20198;-68
2022/09/10 07:08:31;;;;;;;16.15;13.18;;;;;;;20.75;69.86;94816.16;5053651;28;20269;-68
2022/09/10 07:11:00;;;;;;;15.05;13.38;;;;;;;20.78;70.16;94820.94;5054023;28;20206;-68
2022/09/10 07:13:27;;;;;;;14.35;12.93;;;;;;;20.82;70.12;94812.47;5053413;28;20228;-72
2022/09/10 07:15:54;;;;;;;12.38;11.25;;;;;;;20.86;70.19;94813.97;5053376;28;20202;-72
2022/09/10 07:18:20;;;;;;;14.35;12.88;;;;;;;20.97;69.54;94813.81;5053800;28;20206;-73
2022/09/10 07:20:47;;;;;;;15.25;13.73;;;;;;;21.00;69.57;94812.97;5087317;28;20205;-72
2022/09/10 07:23:17;;;;;;;12.70;11.45;;;;;;;21.04;69.60;94815.69;5053582;28;20198;-72
2022/09/10 07:25:44;;;;;;;11.18;10.10;;;;;;;21.11;69.13;94807.16;5054436;28;20182;-73
2022/09/10 07:28:13;;;;;;;11.40;9.90;;;;;;;21.20;68.48;94813.00;5053539;28;20193;-72
2022/09/10 07:30:40;;;;;;;15.55;14.05;;;;;;;21.29;68.86;94821.66;5056882;28;20182;-73
2022/09/10 07:33:07;;;;;;;15.50;13.90;;;;;;;21.34;68.79;94815.56;5057224;28;20222;-73
2022/09/10 07:35:35;;;;;;;18.08;13.77;;;;;;;21.37;68.53;94816.72;5056815;28;20625;-73
2022/09/10 07:38:03;;;;;;;12.50;11.32;;;;;;;21.38;68.16;94815.50;5057779;28;20186;-73
2022/09/10 07:40:32;;;;;;;14.55;12.52;;;;;;;21.47;68.18;94817.75;5058108;28;20268;-72
2022/09/10 07:42:59;;;;;;;13.93;11.10;;;;;;;21.59;68.08;94817.13;5058074;28;20182;-72
2022/09/10 07:45:27;;;;;;;13.52;12.13;;;;;;;21.72;67.50;94829.31;5057272;28;20216;-72
2022/09/10 07:47:53;;;;;;;14.05;12.63;;;;;;;21.83;67.91;94829.09;5057583;28;20201;-71
2022/09/10 07:50:20;;;;;;;11.88;10.68;;;;;;;21.93;66.69;94827.28;5056620;28;20194;-72
2022/09/10 07:52:48;;;;;;;14.25;12.85;;;;;;;22.01;66.61;94814.69;5058054;28;20201;-71
2022/09/10 07:55:14;;;;;;;12.95;11.43;;;;;;;;;;5057859;28;20182;-72
2022/09/10 07:57:43;;;;;;;13.40;11.68;;;;;;;22.11;66.08;94816.44;5057531;28;20190;-71
2022/09/10 08:00:15;;;;;;;12.95;11.68;;;;;;;22.17;66.24;94820.38;5057492;28;20186;-71
2022/09/10 08:02:42;;;;;;;13.57;12.18;;;;;;;22.25;66.12;94821.78;5057192;28;20588;-71
2022/09/10 08:05:10;;;;;;;11.35;10.25;;;;;;;22.31;65.28;94814.44;5056740;28;20235;-71
2022/09/10 08:07:37;;;;;;;13.25;11.82;;;;;;;22.37;65.31;94817.53;5057536;28;20279;-71
2022/09/10 08:10:06;;;;;;;13.73;12.35;;;;;;;22.47;65.50;94826.94;5056523;28;20201;-71
2022/09/10 08:12:33;;;;;;;13.45;12.25;;;;;;;22.59;64.69;94823.47;5057520;28;20197;-71
2022/09/10 08:15:01;;;;;;;14.32;12.93;;;;;;;22.69;64.36;94825.22;5056944;28;20209;-72
2022/09/10 08:17:29;;;;;;;13.50;12.27;;;;;;;22.80;64.54;94813.72;5056418;28;20204;-71
2022/09/10 08:19:55;;;;;;;13.95;12.63;;;;;;;22.99;63.33;94807.25;5056140;28;20190;-72
2022/09/10 08:22:22;;;;;;;13.40;12.07;;;;;;;23.11;63.12;94800.13;5056030;28;20194;-72
2022/09/10 08:24:49;;;;;;;14.40;12.70;;;;;;;23.14;63.55;94801.28;5056373;28;20194;-72
2022/09/10 08:27:16;;;;;;;13.18;11.77;;;;;;;23.11;62.94;94796.53;5056294;28;20201;-72
2022/09/10 08:29:43;;;;;;;13.60;12.20;;;;;;;23.05;62.16;94797.03;5056166;28;20205;-72
2022/09/10 08:32:12;;;;;;;13.65;12.25;;;;;;;22.99;62.31;94792.41;5056592;28;20186;-72
2022/09/10 08:34:39;;;;;;;12.18;11.02;;;;;;;22.94;62.62;94798.56;5056345;28;20225;-72
2022/09/10 08:37:06;;;;;;;11.98;10.88;;;;;;;22.87;62.69;94788.22;5056132;28;20229;-72
2022/09/10 08:39:33;;;;;;;11.20;10.18;;;;;;;22.86;62.80;94808.38;5056245;28;20215;-72
2022/09/10 08:42:03;;;;;;;13.05;11.80;;;;;;;22.87;63.11;94795.88;5055569;28;20201;-73
2022/09/10 08:44:34;;;;;;;13.25;12.05;;;;;;;22.90;62.46;94790.16;5056517;28;20546;-73
2022/09/10 08:47:06;;;;;;;13.95;12.48;;;;;;;22.93;62.83;94796.97;5056866;28;20197;-72
2022/09/10 08:49:38;;;;;;;14.35;12.60;;;;;;;22.93;62.30;94788.53;5056392;28;20601;-72
2022/09/10 08:52:12;;;;;;;14.55;12.25;;;;;;;22.91;62.65;94790.97;5055782;28;20260;-72
2022/09/10 08:54:42;;;;;;;13.48;12.20;;;;;;;22.90;63.02;94787.34;5056303;28;20310;-73
2022/09/10 08:57:17;;;;;;;14.55;13.30;;;;;;;22.90;63.02;94792.19;5055759;28;20197;-73
2022/09/10 08:59:45;;;;;;;15.45;14.00;;;;;;;22.89;63.18;94796.25;5055549;28;20193;-72
2022/09/10 09:02:18;;;;;;;14.57;13.18;;;;;;;22.88;63.18;94794.69;5055360;28;20201;-73
2022/09/10 09:04:51;;;;;;;15.82;14.32;;;;;;;22.89;63.75;94791.41;5055611;28;20198;-73
2022/09/10 09:07:19;;;;;;;15.35;13.40;;;;;;;22.89;63.96;94785.78;5055354;28;20241;-71
2022/09/10 09:09:48;;;;;;;15.23;13.82;;;;;;;22.85;64.31;94784.31;5055489;28;20593;-71
2022/09/10 09:12:22;;;;;;;16.45;14.77;;;;;;;22.77;64.62;94786.50;5055483;28;20551;-71
2022/09/10 09:14:55;;;;;;;18.13;13.02;;;;;;;22.69;63.97;94785.84;5056250;28;20213;-73
2022/09/10 09:17:48;;;;;;;14.25;12.57;;;;;;;22.67;64.50;94779.13;5056111;28;20257;-73
2022/09/10 09:20:18;;;;;;;13.30;11.85;;;;;;;22.63;64.47;94770.78;5055143;28;20190;-72
2022/09/10 09:22:51;;;;;;;12.65;11.45;;;;;;;22.62;64.99;94760.72;5055690;28;20194;-72
2022/09/10 09:25:22;;;;;;;11.00;10.00;;;;;;;22.61;63.95;94755.56;5055015;28;20193;-73
2022/09/10 09:27:52;;;;;;;11.20;9.93;;;;;;;22.62;63.97;94757.91;5055257;28;20209;-74
2022/09/10 09:30:21;;;;;;;12.30;10.48;;;;;;;22.59;64.44;94745.56;5054817;28;20197;-73
2022/09/10 09:32:49;;;;;;;12.30;10.35;;;;;;;22.64;65.30;94754.69;5054716;28;20550;-72
2022/09/10 09:35:26;;;;;;;12.45;10.75;;;;;;;22.68;65.38;94739.31;5054832;28;20233;-73
2022/09/10 09:38:04;;;;;;;12.80;11.48;;;;;;;22.72;65.53;94742.03;5055115;28;20205;-73
2022/09/10 09:40:35;;;;;;;13.75;12.35;;;;;;;22.82;66.08;94733.34;5054793;28;20197;-73
2022/09/10 09:43:05;;;;;;;12.27;10.18;;;;;;;23.06;63.99;94736.78;5054697;28;20293;-73
2022/09/10 09:45:36;;;;;;;12.10;9.98;;;;;;;23.20;63.62;94724.34;5054512;28;20202;-73
2022/09/10 09:48:05;;;;;;;11.60;10.38;;;;;;;23.32;63.60;94711.56;5054282;28;20202;-73
2022/09/10 09:50:37;;;;;;;10.88;9.77;;;;;;;23.51;63.90;94713.41;5054759;28;20202;-73
2022/09/10 09:53:04;;;;;;;11.65;9.98;;;;;;;23.62;62.95;94715.94;5053698;28;20193;-73
2022/09/10 09:55:35;;;;;;;13.07;11.70;;;;;;;23.93;62.08;94716.25;5055073;28;20216;-72
2022/09/10 09:58:28;;;;;;;12.10;10.40;;;;;;;24.14;60.23;94708.38;5055246;28;20194;-73
2022/09/10 10:01:08;;;;;;;11.63;10.25;;;;;;;24.22;60.44;94699.25;5054923;28;20205;-73
2022/09/10 10:03:38;;;;;;;12.27;10.68;;;;;;;24.30;59.52;94694.19;5054619;28;20626;-73
2022/09/10 10:06:07;;;;;;;12.13;9.60;;;;;;;24.47;59.26;94689.22;5055291;28;20185;-72
2022/09/10 10:08:38;;;;;;;11.70;10.40;;;;;;;24.56;59.32;94682.91;5055490;28;20260;-73
2022/09/10 10:11:05;;;;;;;11.65;10.43;;;;;;;24.38;59.95;94672.19;5054967;28;20239;-72
2022/09/10 10:13:37;;;;;;;10.80;9.75;;;;;;;24.33;59.88;94672.75;5054226;28;20554;-72
2022/09/10 10:16:15;;;;;;;12.32;10.13;;;;;;;24.26;60.03;94660.50;5054269;28;20225;-73
2022/09/10 10:18:42;;;;;;;12.32;9.77;;;;;;;24.27;59.85;94658.47;5054537;28;20255;-72
2022/09/10 10:21:19;;;;;;;15.50;10.82;;;;;;;24.61;59.28;94656.97;5054912;28;20189;-72
2022/09/10 10:23:46;;;;;;;12.82;9.55;;;;;;;24.83;57.24;94657.03;5054943;28;20227;-73
2022/09/10 10:26:29;;;;;;;11.43;10.27;;;;;;;24.70;57.96;94657.06;5054122;28;20190;-73
2022/09/10 10:28:58;;;;;;;13.70;10.90;;;;;;;24.58;57.72;94640.94;5054307;28;20193;-72
2022/09/10 10:31:33;;;;;;;12.40;11.10;;;;;;;24.57;58.82;94639.38;5054370;28;20198;-72
2022/09/10 10:34:13;;;;;;;12.27;11.00;;;;;;;24.52;59.25;94637.16;5054055;28;20228;-72
2022/09/10 10:36:49;;;;;;;12.75;10.70;;;;;;;24.55;58.85;94637.03;5054467;28;20205;-72
2022/09/10 10:39:20;;;;;;;12.02;10.80;;;;;;;24.66;58.98;94642.31;5054729;28;20185;-73
2022/09/10 10:41:54;;;;;;;12.65;11.20;;;;;;;24.84;57.71;94644.50;5054741;28;20194;-73
2022/09/10 10:44:38;;;;;;;12.73;10.55;;;;;;;24.71;58.07;94641.72;5054845;28;20197;-72
2022/09/10 10:47:19;;;;;;;10.98;9.77;;;;;;;24.56;58.05;94637.81;5054339;28;20213;-72
2022/09/10 10:49:52;;;;;;;14.23;10.80;;;;;;;24.52;58.63;94625.88;5053762;28;20194;-72
2022/09/10 10:52:27;;;;;;;11.38;10.20;;;;;;;24.42;58.58;94624.97;5053651;28;20194;-72
2022/09/10 10:55:06;;;;;;;11.25;10.10;;;;;;;24.40;58.22;94635.91;5087417;28;20205;-72
2022/09/10 10:57:46;;;;;;;12.88;10.23;;;;;;;24.35;58.01;94634.44;5054096;28;20224;-72
2022/09/10 11:00:15;;;;;;;10.85;9.70;;;;;;;24.30;56.79;94637.84;5053572;28;20214;-72
2022/09/10 11:02:45;;;;;;;12.63;10.32;;;;;;;24.23;57.43;94638.06;5054699;28;20205;-72
2022/09/10 11:05:22;;;;;;;12.13;10.82;;;;;;;24.17;58.12;94639.84;5058408;28;20186;-72
2022/09/10 11:07:51;;;;;;;10.10;9.30;;;;;;;24.09;59.61;94661.06;5058691;28;20248;-72
2022/09/10 11:10:22;;;;;;;11.15;9.60;;;;;;;23.95;62.69;94685.59;5058191;28;20196;-72
2022/09/10 11:12:52;;;;;;;10.13;8.63;;;;;;;23.78;63.46;94690.56;5057055;28;20294;-72
2022/09/10 11:15:28;;;;;;;12.80;9.98;;;;;;;23.62;67.99;94701.84;5090991;28;20237;-72
2022/09/10 11:17:58;;;;;;;13.02;8.25;;;;;;;23.22;68.33;94735.94;5058184;28;20189;-72
2022/09/10 11:20:28;;;;;;;11.38;7.53;;;;;;;22.91;66.87;94717.84;5057408;28;20198;-72
2022/09/10 11:23:03;;;;;;;9.52;6.15;;;;;;;22.69;66.90;94731.66;5058186;28;20193;-72
2022/09/10 11:25:32;;;;;;;7.68;5.53;;;;;;;22.50;68.07;94719.28;5058291;28;20601;-72
2022/09/10 11:28:05;;;;;;;5.68;4.78;;;;;;;22.31;68.55;94730.16;5057862;28;20586;-72
2022/09/10 11:30:33;;;;;;;6.43;5.30;;;;;;;22.18;68.54;94717.25;5058190;28;20185;-72
2022/09/10 11:33:06;;;;;;;5.80;4.75;;;;;;;22.07;69.09;94715.44;5058034;28;20190;-72
2022/09/10 11:35:36;;;;;;;6.65;5.72;;;;;;;22.01;70.05;94736.06;5057913;28;20237;-72
2022/09/10 11:38:12;;;;;;;6.60;5.85;;;;;;;21.95;72.32;94729.38;5057918;28;20190;-72